sensor_id;sensor_type;location;lat;lon;timestamp;P1;durP1;ratioP1;P2;durP2;ratioP2
41446;SDS011;27185;52.040;4.490;2023-06-26T00:00:07;6.47;;;4.20;;
41446;SDS011;27185;52.040;4.490;2023-06-26T00:02:53;6.00;;;4.07;;
41446;SDS011;27185;52.040;4.490;2023-06-26T00:05:39;5.60;;;4.03;;
41446;SDS011;27185;52.040;4.490;2023-06-26T00:08:24;4.90;;;4.03;;
41446;SDS011;27185;52.040;4.490;2023-06-26T00:11:10;5.35;;;3.33;;
41446;SDS011;27185;52.040;4.490;2023-06-26T00:13:56;5.60;;;3.97;;
41446;SDS011;27185;52.040;4.490;2023-06-26T00:16:41;5.95;;;4.10;;
41446;SDS011;27185;52.040;4.490;2023-06-26T00:19:27;8.55;;;4.00;;
41446;SDS011;27185;52.040;4.490;2023-06-26T00:22:13;5.90;;;3.70;;
41446;SDS011;27185;52.040;4.490;2023-06-26T00:24:58;6.38;;;3.88;;
41446;SDS011;27185;52.040;4.490;2023-06-26T00:27:44;6.85;;;3.97;;
41446;SDS011;27185;52.040;4.490;2023-06-26T00:30:30;6.82;;;3.60;;
41446;SDS011;27185;52.040;4.490;2023-06-26T00:33:15;7.63;;;4.28;;
41446;SDS011;27185;52.040;4.490;2023-06-26T00:36:01;7.53;;;3.78;;
41446;SDS011;27185;52.040;4.490;2023-06-26T00:38:46;6.60;;;3.30;;
41446;SDS011;27185;52.040;4.490;2023-06-26T00:41:32;8.63;;;3.85;;
41446;SDS011;27185;52.040;4.490;2023-06-26T00:44:17;6.50;;;3.30;;
41446;SDS011;27185;52.040;4.490;2023-06-26T00:47:03;8.55;;;4.28;;
41446;SDS011;27185;52.040;4.490;2023-06-26T00:49:49;9.30;;;3.83;;
41446;SDS011;27185;52.040;4.490;2023-06-26T00:52:36;7.90;;;3.72;;
41446;SDS011;27185;52.040;4.490;2023-06-26T00:55:22;8.60;;;3.78;;
41446;SDS011;27185;52.040;4.490;2023-06-26T00:58:07;7.78;;;3.65;;
41446;SDS011;27185;52.040;4.490;2023-06-26T01:00:53;8.50;;;2.72;;
41446;SDS011;27185;52.040;4.490;2023-06-26T01:03:39;8.18;;;3.15;;
41446;SDS011;27185;52.040;4.490;2023-06-26T01:06:25;9.07;;;3.58;;
41446;SDS011;27185;52.040;4.490;2023-06-26T01:09:22;9.35;;;3.95;;
41446;SDS011;27185;52.040;4.490;2023-06-26T01:12:08;8.45;;;2.95;;
41446;SDS011;27185;52.040;4.490;2023-06-26T01:14:54;10.45;;;3.88;;
41446;SDS011;27185;52.040;4.490;2023-06-26T01:17:40;12.65;;;3.67;;
41446;SDS011;27185;52.040;4.490;2023-06-26T01:20:31;7.20;;;3.95;;
41446;SDS011;27185;52.040;4.490;2023-06-26T01:23:29;9.02;;;3.15;;
41446;SDS011;27185;52.040;4.490;2023-06-26T01:26:25;8.10;;;3.20;;
41446;SDS011;27185;52.040;4.490;2023-06-26T01:29:14;13.65;;;3.78;;
41446;SDS011;27185;52.040;4.490;2023-06-26T01:32:02;10.05;;;3.72;;
41446;SDS011;27185;52.040;4.490;2023-06-26T01:34:47;10.90;;;3.88;;
41446;SDS011;27185;52.040;4.490;2023-06-26T01:37:33;10.40;;;3.70;;
41446;SDS011;27185;52.040;4.490;2023-06-26T01:40:18;12.75;;;3.97;;
41446;SDS011;27185;52.040;4.490;2023-06-26T01:43:05;14.10;;;4.20;;
41446;SDS011;27185;52.040;4.490;2023-06-26T01:45:54;11.73;;;3.90;;
41446;SDS011;27185;52.040;4.490;2023-06-26T01:48:47;13.32;;;4.07;;
41446;SDS011;27185;52.040;4.490;2023-06-26T01:51:58;11.68;;;4.30;;
41446;SDS011;27185;52.040;4.490;2023-06-26T01:55:12;14.18;;;3.40;;
41446;SDS011;27185;52.040;4.490;2023-06-26T01:58:22;7.53;;;3.38;;
41446;SDS011;27185;52.040;4.490;2023-06-26T02:01:10;9.65;;;3.50;;
41446;SDS011;27185;52.040;4.490;2023-06-26T02:03:56;10.93;;;4.13;;
41446;SDS011;27185;52.040;4.490;2023-06-26T02:06:41;11.77;;;3.95;;
41446;SDS011;27185;52.040;4.490;2023-06-26T02:09:27;7.15;;;3.50;;
41446;SDS011;27185;52.040;4.490;2023-06-26T02:12:13;9.73;;;3.90;;
41446;SDS011;27185;52.040;4.490;2023-06-26T02:14:58;14.75;;;3.85;;
41446;SDS011;27185;52.040;4.490;2023-06-26T02:17:44;14.30;;;4.00;;
41446;SDS011;27185;52.040;4.490;2023-06-26T02:20:33;13.77;;;5.25;;
41446;SDS011;27185;52.040;4.490;2023-06-26T02:23:18;7.78;;;3.40;;
41446;SDS011;27185;52.040;4.490;2023-06-26T02:26:04;11.98;;;3.63;;
41446;SDS011;27185;52.040;4.490;2023-06-26T02:28:49;10.35;;;3.25;;
41446;SDS011;27185;52.040;4.490;2023-06-26T02:31:35;9.98;;;3.83;;
41446;SDS011;27185;52.040;4.490;2023-06-26T02:34:20;7.63;;;3.40;;
41446;SDS011;27185;52.040;4.490;2023-06-26T02:37:06;14.43;;;4.35;;
41446;SDS011;27185;52.040;4.490;2023-06-26T02:39:52;11.27;;;3.65;;
41446;SDS011;27185;52.040;4.490;2023-06-26T02:42:37;12.50;;;3.70;;
41446;SDS011;27185;52.040;4.490;2023-06-26T02:45:23;12.18;;;4.03;;
41446;SDS011;27185;52.040;4.490;2023-06-26T02:48:09;17.30;;;4.93;;
41446;SDS011;27185;52.040;4.490;2023-06-26T02:50:54;15.65;;;4.32;;
41446;SDS011;27185;52.040;4.490;2023-06-26T02:53:40;10.90;;;4.18;;
41446;SDS011;27185;52.040;4.490;2023-06-26T02:56:25;12.85;;;3.90;;
41446;SDS011;27185;52.040;4.490;2023-06-26T02:59:14;16.70;;;4.53;;
41446;SDS011;27185;52.040;4.490;2023-06-26T03:01:59;12.73;;;3.95;;
41446;SDS011;27185;52.040;4.490;2023-06-26T03:04:45;14.43;;;4.07;;
41446;SDS011;27185;52.040;4.490;2023-06-26T03:07:30;11.60;;;4.60;;
41446;SDS011;27185;52.040;4.490;2023-06-26T03:10:16;14.05;;;4.22;;
41446;SDS011;27185;52.040;4.490;2023-06-26T03:13:01;14.80;;;3.53;;
41446;SDS011;27185;52.040;4.490;2023-06-26T03:15:47;12.73;;;4.18;;
41446;SDS011;27185;52.040;4.490;2023-06-26T03:18:33;11.95;;;4.15;;
41446;SDS011;27185;52.040;4.490;2023-06-26T03:21:18;12.73;;;3.80;;
41446;SDS011;27185;52.040;4.490;2023-06-26T03:24:04;16.45;;;3.80;;
41446;SDS011;27185;52.040;4.490;2023-06-26T03:26:50;11.23;;;3.65;;
41446;SDS011;27185;52.040;4.490;2023-06-26T03:29:36;9.80;;;3.45;;
41446;SDS011;27185;52.040;4.490;2023-06-26T03:32:22;12.75;;;4.20;;
41446;SDS011;27185;52.040;4.490;2023-06-26T03:35:07;14.60;;;4.18;;
41446;SDS011;27185;52.040;4.490;2023-06-26T03:37:54;13.23;;;3.95;;
41446;SDS011;27185;52.040;4.490;2023-06-26T03:40:40;12.93;;;4.20;;
41446;SDS011;27185;52.040;4.490;2023-06-26T03:43:25;10.82;;;3.38;;
41446;SDS011;27185;52.040;4.490;2023-06-26T03:46:11;16.20;;;3.38;;
41446;SDS011;27185;52.040;4.490;2023-06-26T03:48:56;10.75;;;3.40;;
41446;SDS011;27185;52.040;4.490;2023-06-26T03:51:42;10.57;;;3.38;;
41446;SDS011;27185;52.040;4.490;2023-06-26T03:54:27;9.80;;;3.85;;
41446;SDS011;27185;52.040;4.490;2023-06-26T03:57:13;9.00;;;2.97;;
41446;SDS011;27185;52.040;4.490;2023-06-26T03:59:58;9.57;;;3.40;;
41446;SDS011;27185;52.040;4.490;2023-06-26T04:02:44;12.48;;;3.53;;
41446;SDS011;27185;52.040;4.490;2023-06-26T04:05:30;9.63;;;3.55;;
41446;SDS011;27185;52.040;4.490;2023-06-26T04:08:15;9.23;;;3.13;;
41446;SDS011;27185;52.040;4.490;2023-06-26T04:11:01;12.27;;;2.47;;
41446;SDS011;27185;52.040;4.490;2023-06-26T04:13:46;8.00;;;2.72;;
41446;SDS011;27185;52.040;4.490;2023-06-26T04:16:32;11.05;;;3.10;;
41446;SDS011;27185;52.040;4.490;2023-06-26T04:19:17;10.02;;;2.85;;
41446;SDS011;27185;52.040;4.490;2023-06-26T04:22:03;7.93;;;3.08;;
41446;SDS011;27185;52.040;4.490;2023-06-26T04:24:48;8.63;;;3.00;;
41446;SDS011;27185;52.040;4.490;2023-06-26T04:27:34;10.52;;;3.15;;
41446;SDS011;27185;52.040;4.490;2023-06-26T04:30:20;5.93;;;2.30;;
41446;SDS011;27185;52.040;4.490;2023-06-26T04:33:05;9.35;;;2.67;;
41446;SDS011;27185;52.040;4.490;2023-06-26T04:35:51;4.68;;;1.58;;
41446;SDS011;27185;52.040;4.490;2023-06-26T04:38:37;6.50;;;2.00;;
41446;SDS011;27185;52.040;4.490;2023-06-26T04:41:22;6.00;;;1.98;;
41446;SDS011;27185;52.040;4.490;2023-06-26T04:44:08;5.55;;;1.95;;
41446;SDS011;27185;52.040;4.490;2023-06-26T04:46:53;4.85;;;1.90;;
41446;SDS011;27185;52.040;4.490;2023-06-26T04:49:39;7.03;;;2.15;;
41446;SDS011;27185;52.040;4.490;2023-06-26T04:52:30;7.50;;;2.10;;
41446;SDS011;27185;52.040;4.490;2023-06-26T04:55:15;6.38;;;2.17;;
41446;SDS011;27185;52.040;4.490;2023-06-26T04:58:01;6.13;;;2.83;;
41446;SDS011;27185;52.040;4.490;2023-06-26T05:00:46;6.97;;;2.25;;
41446;SDS011;27185;52.040;4.490;2023-06-26T05:03:33;7.97;;;2.58;;
41446;SDS011;27185;52.040;4.490;2023-06-26T05:06:19;5.25;;;2.45;;
41446;SDS011;27185;52.040;4.490;2023-06-26T05:09:04;9.93;;;2.75;;
41446;SDS011;27185;52.040;4.490;2023-06-26T05:11:50;4.35;;;2.20;;
41446;SDS011;27185;52.040;4.490;2023-06-26T05:14:36;7.13;;;2.35;;
41446;SDS011;27185;52.040;4.490;2023-06-26T05:17:21;5.38;;;2.42;;
41446;SDS011;27185;52.040;4.490;2023-06-26T05:20:07;4.32;;;1.90;;
41446;SDS011;27185;52.040;4.490;2023-06-26T05:22:54;6.15;;;2.38;;
41446;SDS011;27185;52.040;4.490;2023-06-26T05:25:40;6.28;;;2.40;;
41446;SDS011;27185;52.040;4.490;2023-06-26T05:28:25;3.83;;;1.77;;
41446;SDS011;27185;52.040;4.490;2023-06-26T05:31:12;5.60;;;2.00;;
41446;SDS011;27185;52.040;4.490;2023-06-26T05:33:58;5.22;;;1.70;;
41446;SDS011;27185;52.040;4.490;2023-06-26T05:36:47;6.95;;;1.90;;
41446;SDS011;27185;52.040;4.490;2023-06-26T05:39:35;6.25;;;2.03;;
41446;SDS011;27185;52.040;4.490;2023-06-26T05:42:21;4.68;;;1.30;;
41446;SDS011;27185;52.040;4.490;2023-06-26T05:45:07;2.90;;;1.13;;
41446;SDS011;27185;52.040;4.490;2023-06-26T05:47:53;5.05;;;1.08;;
41446;SDS011;27185;52.040;4.490;2023-06-26T05:50:38;6.75;;;1.20;;
41446;SDS011;27185;52.040;4.490;2023-06-26T05:53:26;4.15;;;1.20;;
41446;SDS011;27185;52.040;4.490;2023-06-26T05:56:12;6.30;;;0.70;;
41446;SDS011;27185;52.040;4.490;2023-06-26T05:58:58;10.23;;;1.08;;
41446;SDS011;27185;52.040;4.490;2023-06-26T06:01:44;6.32;;;0.80;;
41446;SDS011;27185;52.040;4.490;2023-06-26T06:04:30;4.95;;;0.70;;
41446;SDS011;27185;52.040;4.490;2023-06-26T06:07:15;4.93;;;0.80;;
41446;SDS011;27185;52.040;4.490;2023-06-26T06:10:02;4.35;;;1.10;;
41446;SDS011;27185;52.040;4.490;2023-06-26T06:12:49;7.00;;;1.05;;
41446;SDS011;27185;52.040;4.490;2023-06-26T06:15:34;5.15;;;0.88;;
41446;SDS011;27185;52.040;4.490;2023-06-26T06:18:20;2.78;;;0.73;;
41446;SDS011;27185;52.040;4.490;2023-06-26T06:21:05;5.63;;;0.90;;
41446;SDS011;27185;52.040;4.490;2023-06-26T06:23:51;5.82;;;0.70;;
41446;SDS011;27185;52.040;4.490;2023-06-26T06:26:36;7.35;;;0.70;;
41446;SDS011;27185;52.040;4.490;2023-06-26T06:29:22;4.03;;;0.90;;
41446;SDS011;27185;52.040;4.490;2023-06-26T06:32:07;6.35;;;0.73;;
41446;SDS011;27185;52.040;4.490;2023-06-26T06:34:53;4.65;;;0.90;;
41446;SDS011;27185;52.040;4.490;2023-06-26T06:37:39;6.03;;;1.10;;
41446;SDS011;27185;52.040;4.490;2023-06-26T06:40:24;3.80;;;0.70;;
41446;SDS011;27185;52.040;4.490;2023-06-26T06:43:10;4.95;;;0.98;;
41446;SDS011;27185;52.040;4.490;2023-06-26T06:45:56;5.57;;;0.80;;
41446;SDS011;27185;52.040;4.490;2023-06-26T06:48:41;3.95;;;0.70;;
41446;SDS011;27185;52.040;4.490;2023-06-26T06:51:27;5.13;;;0.85;;
41446;SDS011;27185;52.040;4.490;2023-06-26T06:54:14;6.03;;;0.93;;
41446;SDS011;27185;52.040;4.490;2023-06-26T06:57:01;8.90;;;0.80;;
41446;SDS011;27185;52.040;4.490;2023-06-26T06:59:47;3.63;;;0.82;;
41446;SDS011;27185;52.040;4.490;2023-06-26T07:02:34;4.82;;;0.80;;
41446;SDS011;27185;52.040;4.490;2023-06-26T07:05:23;4.25;;;0.70;;
41446;SDS011;27185;52.040;4.490;2023-06-26T07:08:08;3.63;;;0.80;;
41446;SDS011;27185;52.040;4.490;2023-06-26T07:10:54;5.72;;;1.13;;
41446;SDS011;27185;52.040;4.490;2023-06-26T07:13:41;5.57;;;0.80;;
41446;SDS011;27185;52.040;4.490;2023-06-26T07:16:27;3.30;;;0.82;;
41446;SDS011;27185;52.040;4.490;2023-06-26T07:19:12;6.25;;;1.20;;
41446;SDS011;27185;52.040;4.490;2023-06-26T07:21:58;6.70;;;0.80;;
41446;SDS011;27185;52.040;4.490;2023-06-26T07:24:43;5.25;;;0.88;;
41446;SDS011;27185;52.040;4.490;2023-06-26T07:27:29;3.88;;;0.90;;
41446;SDS011;27185;52.040;4.490;2023-06-26T07:30:15;6.80;;;0.93;;
41446;SDS011;27185;52.040;4.490;2023-06-26T07:33:01;7.60;;;0.90;;
41446;SDS011;27185;52.040;4.490;2023-06-26T07:35:46;3.60;;;0.80;;
41446;SDS011;27185;52.040;4.490;2023-06-26T07:38:32;5.05;;;0.90;;
41446;SDS011;27185;52.040;4.490;2023-06-26T07:41:17;5.10;;;0.80;;
41446;SDS011;27185;52.040;4.490;2023-06-26T07:44:03;3.45;;;0.70;;
41446;SDS011;27185;52.040;4.490;2023-06-26T07:46:49;7.75;;;1.00;;
41446;SDS011;27185;52.040;4.490;2023-06-26T07:49:34;3.83;;;0.70;;
41446;SDS011;27185;52.040;4.490;2023-06-26T07:52:20;3.47;;;0.70;;
41446;SDS011;27185;52.040;4.490;2023-06-26T07:55:06;3.40;;;0.80;;
41446;SDS011;27185;52.040;4.490;2023-06-26T07:57:51;4.00;;;1.02;;
41446;SDS011;27185;52.040;4.490;2023-06-26T08:00:37;3.60;;;1.00;;
41446;SDS011;27185;52.040;4.490;2023-06-26T08:03:23;4.70;;;0.70;;
41446;SDS011;27185;52.040;4.490;2023-06-26T08:06:08;7.53;;;0.98;;
41446;SDS011;27185;52.040;4.490;2023-06-26T08:08:54;4.70;;;0.90;;
41446;SDS011;27185;52.040;4.490;2023-06-26T08:11:39;2.70;;;0.60;;
41446;SDS011;27185;52.040;4.490;2023-06-26T08:14:25;3.70;;;0.80;;
41446;SDS011;27185;52.040;4.490;2023-06-26T08:17:11;4.85;;;0.80;;
41446;SDS011;27185;52.040;4.490;2023-06-26T08:19:56;7.22;;;1.60;;
41446;SDS011;27185;52.040;4.490;2023-06-26T08:22:42;5.22;;;1.00;;
41446;SDS011;27185;52.040;4.490;2023-06-26T08:25:28;7.15;;;0.90;;
41446;SDS011;27185;52.040;4.490;2023-06-26T08:28:13;7.35;;;1.10;;
41446;SDS011;27185;52.040;4.490;2023-06-26T08:30:59;5.65;;;1.00;;
41446;SDS011;27185;52.040;4.490;2023-06-26T08:33:44;5.38;;;1.10;;
41446;SDS011;27185;52.040;4.490;2023-06-26T08:36:30;8.73;;;0.80;;
41446;SDS011;27185;52.040;4.490;2023-06-26T08:39:16;1.98;;;0.80;;
41446;SDS011;27185;52.040;4.490;2023-06-26T08:42:02;3.55;;;0.85;;
41446;SDS011;27185;52.040;4.490;2023-06-26T08:44:47;2.63;;;0.65;;
41446;SDS011;27185;52.040;4.490;2023-06-26T08:47:33;4.28;;;0.73;;
41446;SDS011;27185;52.040;4.490;2023-06-26T08:50:20;4.15;;;1.00;;
41446;SDS011;27185;52.040;4.490;2023-06-26T08:56:06;4.32;;;0.77;;
41446;SDS011;27185;52.040;4.490;2023-06-26T08:58:53;5.38;;;1.02;;
41446;SDS011;27185;52.040;4.490;2023-06-26T09:01:39;3.35;;;0.80;;
41446;SDS011;27185;52.040;4.490;2023-06-26T09:04:25;4.60;;;0.73;;
41446;SDS011;27185;52.040;4.490;2023-06-26T09:07:11;5.07;;;1.20;;
41446;SDS011;27185;52.040;4.490;2023-06-26T09:09:57;5.28;;;0.85;;
41446;SDS011;27185;52.040;4.490;2023-06-26T09:12:45;4.15;;;0.70;;
41446;SDS011;27185;52.040;4.490;2023-06-26T09:15:39;4.75;;;0.93;;
41446;SDS011;27185;52.040;4.490;2023-06-26T09:18:27;3.42;;;0.80;;
41446;SDS011;27185;52.040;4.490;2023-06-26T09:21:13;3.92;;;1.02;;
41446;SDS011;27185;52.040;4.490;2023-06-26T09:23:59;6.85;;;1.02;;
41446;SDS011;27185;52.040;4.490;2023-06-26T09:26:45;3.45;;;0.80;;
41446;SDS011;27185;52.040;4.490;2023-06-26T09:29:32;5.50;;;0.88;;
41446;SDS011;27185;52.040;4.490;2023-06-26T09:32:18;3.95;;;0.98;;
41446;SDS011;27185;52.040;4.490;2023-06-26T09:35:04;4.95;;;1.00;;
41446;SDS011;27185;52.040;4.490;2023-06-26T09:37:50;4.05;;;0.88;;
41446;SDS011;27185;52.040;4.490;2023-06-26T09:40:36;5.25;;;0.98;;
41446;SDS011;27185;52.040;4.490;2023-06-26T09:43:23;6.85;;;1.00;;
41446;SDS011;27185;52.040;4.490;2023-06-26T09:46:08;5.07;;;1.10;;
41446;SDS011;27185;52.040;4.490;2023-06-26T09:48:58;4.50;;;0.90;;
41446;SDS011;27185;52.040;4.490;2023-06-26T09:51:45;4.53;;;0.80;;
41446;SDS011;27185;52.040;4.490;2023-06-26T09:54:31;6.38;;;0.82;;
41446;SDS011;27185;52.040;4.490;2023-06-26T09:57:18;3.40;;;0.90;;
41446;SDS011;27185;52.040;4.490;2023-06-26T10:00:04;3.47;;;0.68;;
41446;SDS011;27185;52.040;4.490;2023-06-26T10:02:50;3.58;;;0.88;;
41446;SDS011;27185;52.040;4.490;2023-06-26T10:05:36;5.13;;;1.17;;
41446;SDS011;27185;52.040;4.490;2023-06-26T10:08:22;2.78;;;0.82;;
41446;SDS011;27185;52.040;4.490;2023-06-26T10:11:08;7.35;;;0.90;;
41446;SDS011;27185;52.040;4.490;2023-06-26T10:13:59;2.50;;;0.60;;
41446;SDS011;27185;52.040;4.490;2023-06-26T10:16:48;5.68;;;0.80;;
41446;SDS011;27185;52.040;4.490;2023-06-26T10:19:35;3.63;;;0.80;;
41446;SDS011;27185;52.040;4.490;2023-06-26T10:22:24;5.40;;;1.02;;
41446;SDS011;27185;52.040;4.490;2023-06-26T10:25:16;3.17;;;0.60;;
41446;SDS011;27185;52.040;4.490;2023-06-26T10:28:04;3.80;;;0.60;;
41446;SDS011;27185;52.040;4.490;2023-06-26T10:30:51;2.92;;;0.75;;
41446;SDS011;27185;52.040;4.490;2023-06-26T10:33:38;2.85;;;0.75;;
41446;SDS011;27185;52.040;4.490;2023-06-26T10:36:31;3.00;;;0.55;;
41446;SDS011;27185;52.040;4.490;2023-06-26T10:39:17;4.53;;;0.70;;
41446;SDS011;27185;52.040;4.490;2023-06-26T10:42:08;2.58;;;0.60;;
41446;SDS011;27185;52.040;4.490;2023-06-26T10:44:57;2.78;;;0.65;;
41446;SDS011;27185;52.040;4.490;2023-06-26T10:48:04;6.38;;;0.55;;
41446;SDS011;27185;52.040;4.490;2023-06-26T10:50:50;2.58;;;0.57;;
41446;SDS011;27185;52.040;4.490;2023-06-26T10:53:35;5.80;;;0.70;;
41446;SDS011;27185;52.040;4.490;2023-06-26T10:56:21;4.35;;;0.68;;
41446;SDS011;27185;52.040;4.490;2023-06-26T10:59:27;2.50;;;0.70;;
41446;SDS011;27185;52.040;4.490;2023-06-26T11:02:13;2.17;;;0.50;;
41446;SDS011;27185;52.040;4.490;2023-06-26T11:05:00;4.53;;;0.95;;
41446;SDS011;27185;52.040;4.490;2023-06-26T11:10:55;2.83;;;0.70;;
41446;SDS011;27185;52.040;4.490;2023-06-26T11:13:45;3.10;;;0.50;;
41446;SDS011;27185;52.040;4.490;2023-06-26T11:16:32;9.75;;;0.90;;
41446;SDS011;27185;52.040;4.490;2023-06-26T11:19:18;3.47;;;0.80;;
41446;SDS011;27185;52.040;4.490;2023-06-26T11:22:05;3.92;;;0.73;;
41446;SDS011;27185;52.040;4.490;2023-06-26T11:24:51;3.60;;;0.60;;
41446;SDS011;27185;52.040;4.490;2023-06-26T11:27:41;5.00;;;0.63;;
41446;SDS011;27185;52.040;4.490;2023-06-26T11:30:28;2.40;;;0.60;;
41446;SDS011;27185;52.040;4.490;2023-06-26T11:33:13;3.08;;;0.40;;
41446;SDS011;27185;52.040;4.490;2023-06-26T11:36:07;3.80;;;0.60;;
41446;SDS011;27185;52.040;4.490;2023-06-26T11:38:57;1.38;;;0.40;;
41446;SDS011;27185;52.040;4.490;2023-06-26T11:41:44;6.13;;;0.70;;
41446;SDS011;27185;52.040;4.490;2023-06-26T11:44:30;2.53;;;0.60;;
41446;SDS011;27185;52.040;4.490;2023-06-26T11:47:17;1.98;;;0.50;;
41446;SDS011;27185;52.040;4.490;2023-06-26T11:50:04;1.95;;;0.60;;
41446;SDS011;27185;52.040;4.490;2023-06-26T11:52:54;2.47;;;0.50;;
41446;SDS011;27185;52.040;4.490;2023-06-26T11:55:43;2.85;;;0.63;;
41446;SDS011;27185;52.040;4.490;2023-06-26T11:58:28;2.72;;;0.50;;
41446;SDS011;27185;52.040;4.490;2023-06-26T12:01:17;2.67;;;0.73;;
41446;SDS011;27185;52.040;4.490;2023-06-26T12:04:03;2.53;;;0.50;;
41446;SDS011;27185;52.040;4.490;2023-06-26T12:06:52;2.97;;;0.52;;
41446;SDS011;27185;52.040;4.490;2023-06-26T12:09:42;2.15;;;0.70;;
41446;SDS011;27185;52.040;4.490;2023-06-26T12:12:30;4.38;;;0.63;;
41446;SDS011;27185;52.040;4.490;2023-06-26T12:15:16;2.70;;;0.50;;
41446;SDS011;27185;52.040;4.490;2023-06-26T12:18:07;1.85;;;0.63;;
41446;SDS011;27185;52.040;4.490;2023-06-26T12:20:53;1.48;;;0.40;;
41446;SDS011;27185;52.040;4.490;2023-06-26T12:23:39;1.38;;;0.50;;
41446;SDS011;27185;52.040;4.490;2023-06-26T12:26:25;3.10;;;0.50;;
41446;SDS011;27185;52.040;4.490;2023-06-26T12:29:13;4.40;;;0.52;;
41446;SDS011;27185;52.040;4.490;2023-06-26T12:32:02;2.50;;;0.50;;
41446;SDS011;27185;52.040;4.490;2023-06-26T12:34:48;3.08;;;0.65;;
41446;SDS011;27185;52.040;4.490;2023-06-26T12:37:38;1.45;;;0.45;;
41446;SDS011;27185;52.040;4.490;2023-06-26T12:40:27;2.97;;;0.57;;
41446;SDS011;27185;52.040;4.490;2023-06-26T12:43:22;1.73;;;0.60;;
41446;SDS011;27185;52.040;4.490;2023-06-26T12:46:08;1.27;;;0.30;;
41446;SDS011;27185;52.040;4.490;2023-06-26T12:48:54;1.63;;;0.50;;
41446;SDS011;27185;52.040;4.490;2023-06-26T12:51:39;2.60;;;0.50;;
41446;SDS011;27185;52.040;4.490;2023-06-26T12:54:25;2.83;;;0.60;;
41446;SDS011;27185;52.040;4.490;2023-06-26T12:57:11;1.73;;;0.50;;
41446;SDS011;27185;52.040;4.490;2023-06-26T12:59:59;4.00;;;0.75;;
41446;SDS011;27185;52.040;4.490;2023-06-26T13:02:45;1.98;;;0.40;;
41446;SDS011;27185;52.040;4.490;2023-06-26T13:05:31;3.15;;;0.35;;
41446;SDS011;27185;52.040;4.490;2023-06-26T13:08:17;2.53;;;0.40;;
41446;SDS011;27185;52.040;4.490;2023-06-26T13:11:03;3.35;;;0.68;;
41446;SDS011;27185;52.040;4.490;2023-06-26T13:13:49;2.83;;;0.50;;
41446;SDS011;27185;52.040;4.490;2023-06-26T13:16:35;3.92;;;0.70;;
41446;SDS011;27185;52.040;4.490;2023-06-26T13:19:21;2.03;;;0.50;;
41446;SDS011;27185;52.040;4.490;2023-06-26T13:22:07;2.03;;;0.40;;
41446;SDS011;27185;52.040;4.490;2023-06-26T13:24:53;1.85;;;0.57;;
41446;SDS011;27185;52.040;4.490;2023-06-26T13:27:38;2.65;;;0.60;;
41446;SDS011;27185;52.040;4.490;2023-06-26T13:30:24;3.17;;;0.50;;
41446;SDS011;27185;52.040;4.490;2023-06-26T13:33:09;3.63;;;0.63;;
41446;SDS011;27185;52.040;4.490;2023-06-26T13:35:56;3.67;;;0.60;;
41446;SDS011;27185;52.040;4.490;2023-06-26T13:38:42;3.63;;;0.50;;
41446;SDS011;27185;52.040;4.490;2023-06-26T13:41:27;1.17;;;0.40;;
41446;SDS011;27185;52.040;4.490;2023-06-26T13:44:13;2.53;;;0.63;;
41446;SDS011;27185;52.040;4.490;2023-06-26T13:46:59;3.00;;;0.40;;
41446;SDS011;27185;52.040;4.490;2023-06-26T13:49:44;2.97;;;0.40;;
41446;SDS011;27185;52.040;4.490;2023-06-26T13:52:30;2.38;;;0.40;;
41446;SDS011;27185;52.040;4.490;2023-06-26T13:55:16;2.05;;;0.32;;
41446;SDS011;27185;52.040;4.490;2023-06-26T13:58:02;1.75;;;0.30;;
41446;SDS011;27185;52.040;4.490;2023-06-26T14:03:35;1.48;;;0.40;;
41446;SDS011;27185;52.040;4.490;2023-06-26T14:06:20;1.13;;;0.30;;
41446;SDS011;27185;52.040;4.490;2023-06-26T14:09:06;1.73;;;0.40;;
41446;SDS011;27185;52.040;4.490;2023-06-26T14:11:52;1.45;;;0.43;;
41446;SDS011;27185;52.040;4.490;2023-06-26T14:14:37;2.00;;;0.50;;
41446;SDS011;27185;52.040;4.490;2023-06-26T14:17:24;1.80;;;0.40;;
41446;SDS011;27185;52.040;4.490;2023-06-26T14:20:10;1.67;;;0.40;;
41446;SDS011;27185;52.040;4.490;2023-06-26T14:22:59;2.72;;;0.50;;
41446;SDS011;27185;52.040;4.490;2023-06-26T14:25:45;1.55;;;0.40;;
41446;SDS011;27185;52.040;4.490;2023-06-26T14:28:30;2.33;;;0.60;;
41446;SDS011;27185;52.040;4.490;2023-06-26T14:31:16;3.08;;;0.60;;
41446;SDS011;27185;52.040;4.490;2023-06-26T14:34:02;1.90;;;0.60;;
41446;SDS011;27185;52.040;4.490;2023-06-26T14:36:48;2.50;;;0.73;;
41446;SDS011;27185;52.040;4.490;2023-06-26T14:39:33;3.38;;;0.50;;
41446;SDS011;27185;52.040;4.490;2023-06-26T14:42:19;3.08;;;0.57;;
41446;SDS011;27185;52.040;4.490;2023-06-26T14:45:04;3.90;;;0.50;;
41446;SDS011;27185;52.040;4.490;2023-06-26T14:47:50;2.08;;;0.32;;
41446;SDS011;27185;52.040;4.490;2023-06-26T14:50:36;1.73;;;0.43;;
41446;SDS011;27185;52.040;4.490;2023-06-26T14:53:21;2.40;;;0.50;;
41446;SDS011;27185;52.040;4.490;2023-06-26T14:56:07;1.20;;;0.38;;
41446;SDS011;27185;52.040;4.490;2023-06-26T14:58:53;2.80;;;0.55;;
41446;SDS011;27185;52.040;4.490;2023-06-26T15:01:38;2.78;;;0.73;;
41446;SDS011;27185;52.040;4.490;2023-06-26T15:04:24;3.63;;;0.50;;
41446;SDS011;27185;52.040;4.490;2023-06-26T15:07:10;3.65;;;0.55;;
41446;SDS011;27185;52.040;4.490;2023-06-26T15:09:55;2.88;;;0.82;;
41446;SDS011;27185;52.040;4.490;2023-06-26T15:12:42;3.05;;;0.45;;
41446;SDS011;27185;52.040;4.490;2023-06-26T15:15:28;2.78;;;0.47;;
41446;SDS011;27185;52.040;4.490;2023-06-26T15:18:14;1.40;;;0.50;;
41446;SDS011;27185;52.040;4.490;2023-06-26T15:20:59;3.78;;;0.60;;
41446;SDS011;27185;52.040;4.490;2023-06-26T15:23:49;2.17;;;0.68;;
41446;SDS011;27185;52.040;4.490;2023-06-26T15:26:35;2.47;;;0.60;;
41446;SDS011;27185;52.040;4.490;2023-06-26T15:29:21;2.85;;;0.40;;
41446;SDS011;27185;52.040;4.490;2023-06-26T15:32:07;3.33;;;0.52;;
41446;SDS011;27185;52.040;4.490;2023-06-26T15:34:53;1.92;;;0.50;;
41446;SDS011;27185;52.040;4.490;2023-06-26T15:37:39;4.40;;;0.50;;
41446;SDS011;27185;52.040;4.490;2023-06-26T15:40:24;3.55;;;0.50;;
41446;SDS011;27185;52.040;4.490;2023-06-26T15:43:10;1.75;;;0.55;;
41446;SDS011;27185;52.040;4.490;2023-06-26T15:45:55;7.80;;;0.70;;
41446;SDS011;27185;52.040;4.490;2023-06-26T15:48:41;3.00;;;0.55;;
41446;SDS011;27185;52.040;4.490;2023-06-26T15:51:26;2.17;;;0.70;;
41446;SDS011;27185;52.040;4.490;2023-06-26T15:54:12;4.38;;;0.60;;
41446;SDS011;27185;52.040;4.490;2023-06-26T15:56:58;4.18;;;0.50;;
41446;SDS011;27185;52.040;4.490;2023-06-26T15:59:43;3.10;;;0.50;;
41446;SDS011;27185;52.040;4.490;2023-06-26T16:02:29;3.03;;;0.60;;
41446;SDS011;27185;52.040;4.490;2023-06-26T16:05:14;5.60;;;0.60;;
41446;SDS011;27185;52.040;4.490;2023-06-26T16:08:00;4.72;;;0.85;;
41446;SDS011;27185;52.040;4.490;2023-06-26T16:10:46;3.15;;;0.55;;
41446;SDS011;27185;52.040;4.490;2023-06-26T16:13:31;4.10;;;0.55;;
41446;SDS011;27185;52.040;4.490;2023-06-26T16:16:17;2.88;;;0.60;;
41446;SDS011;27185;52.040;4.490;2023-06-26T16:19:02;1.45;;;0.43;;
41446;SDS011;27185;52.040;4.490;2023-06-26T16:21:49;3.13;;;0.55;;
41446;SDS011;27185;52.040;4.490;2023-06-26T16:24:34;2.35;;;0.50;;
41446;SDS011;27185;52.040;4.490;2023-06-26T16:27:20;3.17;;;0.55;;
41446;SDS011;27185;52.040;4.490;2023-06-26T16:30:06;2.50;;;0.43;;
41446;SDS011;27185;52.040;4.490;2023-06-26T16:32:52;1.73;;;0.40;;
41446;SDS011;27185;52.040;4.490;2023-06-26T16:35:38;3.33;;;0.50;;
41446;SDS011;27185;52.040;4.490;2023-06-26T16:38:24;1.67;;;0.60;;
41446;SDS011;27185;52.040;4.490;2023-06-26T16:41:09;1.83;;;0.45;;
41446;SDS011;27185;52.040;4.490;2023-06-26T16:44:02;4.30;;;0.70;;
41446;SDS011;27185;52.040;4.490;2023-06-26T16:46:54;1.45;;;0.43;;
41446;SDS011;27185;52.040;4.490;2023-06-26T16:49:47;2.20;;;0.40;;